Pagrindinis puslapis
METAR-TAF:

METAR-TAF

Oro uostai :

Nome, Aliaska, Jungtinės Amerikos Valstijos

platuma: 64-30-43N, ilguma: 165-26-42W, Aukštis: 11 m

Dabartinis oras

Ataskaita buvo paskelbta 35 minutes, ne 03:53 UTC
Vėjas 8 kt iš Šiaurės
Temperatūra 14°C
Drėgmė 67%
Slėgis 1003 hPa
Matomumas: 16.1 km
Apsiniaukę ne aukštis 10000 ft

METAR: PAOM 160353Z 36008KT 10SM OVC100 14/08 A2963 RMK AO2 SLP034 T01440083

Laikas: 20:28 (04:28 UTC)

Prognozė

Ataskaita buvo paskelbta 5 valandos ir 7 minutes, ne 23:21 UTC
Prognozė galioja nuo 16 metu 00 UTC su 16 metu 24 UTC
Vėjas 9 kt iš Vakarų
Matomumas: 10 km
Išsisklaidę debesys ne aukštis 2600 ft
Išsisklaidę debesys ne aukštis 3500 ft
Liūtis kaimynystėje
Nuo 16 metu 0700 UTC
Vėjas 10 kt iš Šiaurės
Matomumas: 10 km
Su prošvaistėmis ne aukštis 5000 ft

TAF: PAOM 152321Z 1600/1624 26009KT P6SM VCSH SCT026 SCT035 FM160700 35010KT P6SM BKN050

Orai ataskaitas ir orų prognozės (METAR, TAF).

turimą stotys yra geltonos ir raudonos taškus žemėlapyje.

Perkelti pele per norėdami pamatyti stoties vardą.

Tada spustelėkite, norėdami matyti oro stebėjimo ir prognozės.

Norėdami pakeisti žemėlapį: spustelėkite ant žalios mygtukų su juodo kryžiaus žemyn,; žalią mygtuką su brūkšneliu, jei norite nutolinti; arba žalių rodyklių gretimoms žemėlapius.


METAR-TAF: